Terminal Aerodrome Forecast
Issued by NWS Austin/San Antonio, TX

Home | Current Version | Previous Version | Text Only | Print | Product List | Glossary On
Versions: 1 2 3 4 5 6 7 8 9 10 11 12 13 14 15 16 17 18 19 20 21 22 23 24
000
FTUS44 KEWX 230346 AAC
TAFDRT
TAF AMD
KDRT 230346Z 2304/2324 17004KT P6SM FEW020 BKN060
     FM230700 14004KT P6SM BKN018
     FM231100 11005KT 6SM HZ BR OVC007
     FM231700 02004KT P6SM OVC015
     FM232000 33014KT P6SM BKN035=

USA.gov is the U.S. government's official web portal to all federal, state and local government web resources and services.